Time;durP1;ratioP1;P1;durP2;ratioP2;P2;SDS_P1;SDS_P2;PMS_P1;PMS_P2;Temp;Humidity;BMP_temperature;BMP_pressure;BME280_temperature;BME280_humidity;BME280_pressure;Samples;Min_cycle;Max_cycle;Signal;HPM_P1;HPM_P2
2023/06/21 00:02:11;;;;;;;13.13;11.65;;;20.40;99.90;;;;;;5055109;28;20041;-72
2023/06/21 00:04:37;;;;;;;13.85;12.45;;;20.40;99.90;;;;;;5054363;28;20044;-71
2023/06/21 00:07:03;;;;;;;14.48;12.98;;;20.40;99.90;;;;;;5038220;28;20048;-72
2023/06/21 00:09:29;;;;;;;14.38;12.93;;;20.40;99.90;;;;;;5054176;28;20044;-72
2023/06/21 00:11:55;;;;;;;14.25;12.80;;;20.40;99.90;;;;;;5021527;28;20094;-71
2023/06/21 00:14:21;;;;;;;15.52;13.30;;;20.30;99.90;;;;;;5054918;28;20115;-72
2023/06/21 00:16:47;;;;;;;16.08;14.13;;;20.30;99.90;;;;;;5005108;28;20668;-71
2023/06/21 00:19:12;;;;;;;15.10;13.60;;;20.30;99.90;;;;;;5054375;28;20350;-72
2023/06/21 00:21:38;;;;;;;15.68;14.02;;;20.30;99.90;;;;;;5037345;28;20133;-71
2023/06/21 00:24:06;;;;;;;16.05;14.38;;;20.30;99.90;;;;;;5038191;28;20496;-73
2023/06/21 00:26:32;;;;;;;15.90;14.18;;;20.30;99.90;;;;;;5071863;28;20048;-71
2023/06/21 00:28:58;;;;;;;16.92;15.13;;;20.20;99.90;;;;;;5054692;28;20047;-71
2023/06/21 00:31:24;;;;;;;16.63;14.93;;;20.30;99.90;;;;;;5054375;28;20128;-71
2023/06/21 00:33:49;;;;;;;16.60;15.00;;;20.30;99.90;;;;;;5037893;28;20044;-72
2023/06/21 00:36:15;;;;;;;16.23;14.50;;;20.30;99.90;;;;;;5054763;28;20053;-71
2023/06/21 00:38:41;;;;;;;16.85;15.10;;;20.30;99.90;;;;;;5037620;28;20051;-71
2023/06/21 00:41:07;;;;;;;16.85;15.15;;;20.30;99.90;;;;;;5054709;28;20127;-72
2023/06/21 00:43:33;;;;;;;18.33;16.42;;;20.20;99.90;;;;;;5038162;28;20060;-72
2023/06/21 00:45:59;;;;;;;18.08;16.17;;;20.30;99.90;;;;;;5025576;28;20162;-71
2023/06/21 00:48:28;;;;;;;18.45;16.42;;;20.20;99.90;;;;;;5041778;28;20040;-74
2023/06/21 00:50:58;;;;;;;17.92;16.13;;;20.20;99.90;;;;;;5057925;28;20057;-70
2023/06/21 00:53:26;;;;;;;19.25;17.25;;;20.20;99.90;;;;;;5066531;28;20048;-71
2023/06/21 00:55:52;;;;;;;19.35;17.23;;;20.20;99.90;;;;;;5091052;28;20216;-72
2023/06/21 00:58:20;;;;;;;20.17;17.42;;;20.10;99.90;;;;;;5080030;28;20102;-70
2023/06/21 01:00:49;;;;;;;18.77;16.98;;;20.10;99.90;;;;;;5077033;28;20101;-71
2023/06/21 01:03:19;;;;;;;20.55;18.45;;;20.20;99.90;;;;;;5059020;28;20573;-72
2023/06/21 01:06:08;;;;;;;20.40;17.77;;;20.10;99.90;;;;;;5075707;28;20091;-71
2023/06/21 01:08:42;;;;;;;21.50;19.30;;;20.10;99.90;;;;;;5058157;28;20048;-74
2023/06/21 01:11:28;;;;;;;19.95;17.95;;;20.10;99.90;;;;;;5074909;28;20128;-71
2023/06/21 01:14:02;;;;;;;21.27;19.20;;;20.10;99.90;;;;;;5057841;28;20057;-71
2023/06/21 01:16:43;;;;;;;21.55;19.23;;;20.10;99.90;;;;;;5058205;28;20123;-71
2023/06/21 01:19:22;;;;;;;25.23;20.38;;;20.00;99.90;;;;;;5075267;28;20110;-72
2023/06/21 01:21:49;;;;;;;23.52;20.65;;;20.00;99.90;;;;;;5057186;28;20450;-70
2023/06/21 01:24:32;;;;;;;22.13;19.88;;;20.00;99.90;;;;;;5040582;28;20048;-70
2023/06/21 01:27:09;;;;;;;22.38;20.13;;;20.00;99.90;;;;;;5075059;28;20486;-71
2023/06/21 01:29:39;;;;;;;24.23;21.67;;;20.00;99.90;;;;;;5057697;28;20102;-70
2023/06/21 01:32:07;;;;;;;26.02;22.73;;;19.90;99.90;;;;;;5074266;28;20041;-71
2023/06/21 01:34:34;;;;;;;24.33;21.88;;;20.00;99.90;;;;;;5074926;28;20040;-71
2023/06/21 01:37:00;;;;;;;26.77;23.70;;;20.00;99.90;;;;;;5074476;28;20044;-72
2023/06/21 01:39:27;;;;;;;24.30;21.67;;;20.00;99.90;;;;;;5057589;28;20106;-72
2023/06/21 01:41:53;;;;;;;25.13;22.52;;;20.00;99.90;;;;;;5040524;28;20044;-71
2023/06/21 01:44:19;;;;;;;25.08;22.35;;;19.90;99.90;;;;;;5040668;28;20093;-71
2023/06/21 01:46:51;;;;;;;25.25;22.63;;;19.90;99.90;;;;;;5024043;28;20095;-71
2023/06/21 01:49:17;;;;;;;25.27;22.50;;;19.90;99.90;;;;;;5057408;28;20371;-72
2023/06/21 01:51:44;;;;;;;25.35;22.85;;;19.90;99.90;;;;;;5056855;28;20100;-71
2023/06/21 01:54:10;;;;;;;24.98;22.55;;;19.90;99.90;;;;;;5024420;28;20059;-71
2023/06/21 01:56:40;;;;;;;25.83;22.77;;;19.90;99.90;;;;;;5075096;28;20091;-71
2023/06/21 01:59:06;;;;;;;26.42;23.65;;;19.90;99.90;;;;;;5074867;28;20132;-71
2023/06/21 02:01:33;;;;;;;26.45;23.65;;;19.90;99.90;;;;;;5056957;28;20049;-70
2023/06/21 02:04:01;;;;;;;25.80;23.17;;;19.90;99.90;;;;;;5074647;28;20127;-71
2023/06/21 02:06:29;;;;;;;26.25;23.42;;;19.90;99.90;;;;;;5057353;28;20504;-71
2023/06/21 02:08:59;;;;;;;26.38;23.70;;;19.80;99.90;;;;;;5074634;28;20049;-71
2023/06/21 02:11:28;;;;;;;27.25;24.35;;;19.80;99.90;;;;;;5056920;28;20045;-71
2023/06/21 02:13:54;;;;;;;28.55;24.50;;;19.80;99.90;;;;;;5056659;28;20139;-71
2023/06/21 02:16:27;;;;;;;26.90;24.10;;;19.80;99.90;;;;;;5040612;28;20482;-71
2023/06/21 02:18:53;;;;;;;27.30;24.48;;;19.80;99.90;;;;;;5056404;28;20127;-71
2023/06/21 02:21:20;;;;;;;26.42;23.58;;;19.80;99.90;;;;;;5040855;28;20049;-71
2023/06/21 02:23:45;;;;;;;27.50;23.80;;;19.80;99.90;;;;;;5044170;28;20087;-73
2023/06/21 02:26:11;;;;;;;28.73;24.23;;;19.80;99.90;;;;;;5074175;28;20040;-71
2023/06/21 02:28:37;;;;;;;27.23;24.40;;;19.80;99.90;;;;;;5083970;28;20059;-70
2023/06/21 02:31:03;;;;;;;27.45;24.58;;;19.80;99.90;;;;;;5080269;28;20041;-71
2023/06/21 02:33:31;;;;;;;28.08;25.13;;;19.80;99.90;;;;;;5061594;28;20048;-70
2023/06/21 02:35:57;;;;;;;29.83;26.23;;;19.80;99.90;;;;;;5027457;28;20052;-72
2023/06/21 02:38:25;;;;;;;29.45;26.33;;;19.80;99.90;;;;;;5077398;28;20094;-71
2023/06/21 02:40:54;;;;;;;29.75;26.48;;;19.80;99.90;;;;;;5041266;28;20047;-72
2023/06/21 02:43:20;;;;;;;30.85;27.55;;;19.70;99.90;;;;;;5057532;28;20413;-71
2023/06/21 02:45:46;;;;;;;33.42;29.48;;;19.70;99.90;;;;;;5040431;28;20052;-73
2023/06/21 02:48:12;;;;;;;33.28;29.77;;;19.70;99.90;;;;;;5039860;28;20045;-71
2023/06/21 02:50:38;;;;;;;34.75;30.23;;;19.60;99.90;;;;;;5056919;28;20071;-72
2023/06/21 02:53:04;;;;;;;33.63;30.08;;;19.60;99.90;;;;;;5022563;28;20134;-71
2023/06/21 02:55:29;;;;;;;34.67;30.27;;;19.60;99.90;;;;;;5039576;28;20044;-71
2023/06/21 02:57:55;;;;;;;36.05;32.15;;;19.60;99.90;;;;;;5073217;28;20048;-71
2023/06/21 03:00:41;;;;;;;35.20;31.48;;;19.60;99.90;;;;;;5039423;28;20036;-71
2023/06/21 03:03:07;;;;;;;36.53;30.98;;;19.50;99.90;;;;;;5071955;28;20086;-72
2023/06/21 03:05:36;;;;;;;35.00;31.15;;;19.50;99.90;;;;;;5055615;28;20490;-71
2023/06/21 03:08:07;;;;;;;34.22;29.73;;;19.40;99.90;;;;;;5038829;28;20055;-71
2023/06/21 03:10:33;;;;;;;36.97;31.55;;;19.40;99.90;;;;;;5039852;28;20048;-72
2023/06/21 03:13:04;;;;;;;34.50;30.90;;;19.40;99.90;;;;;;5054236;28;20070;-71
2023/06/21 03:15:30;;;;;;;35.70;31.83;;;19.40;99.90;;;;;;5038916;28;20549;-71
2023/06/21 03:17:56;;;;;;;37.30;33.15;;;19.40;99.90;;;;;;5038639;28;20414;-71
2023/06/21 03:20:24;;;;;;;36.15;32.35;;;19.30;99.90;;;;;;5038638;28;20040;-71
2023/06/21 03:22:50;;;;;;;35.35;31.50;;;19.30;99.90;;;;;;5037737;28;20048;-71
2023/06/21 03:25:16;;;;;;;36.28;31.85;;;19.30;99.90;;;;;;5071490;28;20203;-71
2023/06/21 03:27:41;;;;;;;37.15;31.42;;;19.30;99.90;;;;;;5055290;28;20040;-71
2023/06/21 03:30:11;;;;;;;37.22;32.55;;;19.30;99.90;;;;;;5038449;28;20466;-71
2023/06/21 03:32:39;;;;;;;41.53;33.47;;;19.30;99.90;;;;;;5055335;28;20097;-71
2023/06/21 03:35:05;;;;;;;41.15;34.22;;;19.30;99.90;;;;;;5072733;28;20045;-72
2023/06/21 03:37:30;;;;;;;38.35;34.13;;;19.30;99.90;;;;;;5022696;28;20041;-72
2023/06/21 03:39:56;;;;;;;40.85;35.35;;;19.30;99.90;;;;;;5072775;28;20055;-71
2023/06/21 03:42:22;;;;;;;38.45;34.35;;;19.30;99.90;;;;;;5055238;28;20547;-71
2023/06/21 03:44:47;;;;;;;41.22;34.80;;;19.30;99.90;;;;;;5039130;28;20045;-72
2023/06/21 03:47:13;;;;;;;39.10;34.90;;;19.20;99.90;;;;;;5072834;28;20067;-71
2023/06/21 03:49:39;;;;;;;40.05;34.35;;;19.30;99.90;;;;;;5055364;28;20110;-72
2023/06/21 03:52:05;;;;;;;39.75;35.35;;;19.20;99.90;;;;;;5072744;28;20049;-71
2023/06/21 03:54:31;;;;;;;36.28;32.47;;;19.20;99.90;;;;;;5039020;28;20051;-71
2023/06/21 03:56:57;;;;;;;39.33;33.58;;;19.20;99.90;;;;;;5089406;28;20490;-72
2023/06/21 03:59:23;;;;;;;41.80;34.35;;;19.20;99.90;;;;;;5063702;28;20048;-72
2023/06/21 04:01:49;;;;;;;41.63;34.40;;;19.20;99.90;;;;;;5038806;28;20132;-72
2023/06/21 04:04:15;;;;;;;37.67;33.60;;;19.20;99.90;;;;;;5005366;28;20052;-71
2023/06/21 04:06:40;;;;;;;39.35;34.28;;;19.20;99.90;;;;;;5072927;28;20086;-71
2023/06/21 04:09:07;;;;;;;40.00;34.10;;;19.20;99.90;;;;;;5038326;28;20097;-72
2023/06/21 04:11:32;;;;;;;39.92;33.53;;;19.20;99.90;;;;;;5054766;28;20057;-71
2023/06/21 04:13:58;;;;;;;41.50;34.17;;;19.20;99.90;;;;;;5038432;28;20060;-72
2023/06/21 04:16:24;;;;;;;43.03;32.92;;;19.30;99.90;;;;;;5021560;28;20108;-72
2023/06/21 04:18:49;;;;;;;35.95;32.05;;;19.30;99.90;;;;;;5055681;28;20044;-72
2023/06/21 04:21:15;;;;;;;36.47;32.55;;;19.30;99.90;;;;;;5076237;28;20482;-71
2023/06/21 04:23:41;;;;;;;36.65;32.40;;;19.30;99.90;;;;;;5058731;28;20045;-71
2023/06/21 04:26:07;;;;;;;37.63;32.33;;;19.30;99.90;;;;;;5076212;28;20040;-71
2023/06/21 04:28:33;;;;;;;39.35;33.47;;;19.40;99.90;;;;;;5058689;28;20071;-71
2023/06/21 04:31:00;;;;;;;41.78;34.60;;;19.40;99.90;;;;;;5042102;28;20143;-72
2023/06/21 04:33:28;;;;;;;40.58;32.50;;;19.40;99.90;;;;;;5058686;28;20048;-71
2023/06/21 04:35:54;;;;;;;39.83;32.00;;;19.40;99.90;;;;;;5058654;28;20094;-72
2023/06/21 04:38:20;;;;;;;37.55;33.33;;;19.50;99.90;;;;;;5041381;28;20432;-72
2023/06/21 04:40:45;;;;;;;37.40;31.25;;;19.50;99.90;;;;;;5042254;28;20048;-71
2023/06/21 04:43:11;;;;;;;35.15;30.73;;;19.50;99.90;;;;;;5057892;28;20041;-71
2023/06/21 04:45:37;;;;;;;34.67;30.85;;;19.50;99.90;;;;;;5025621;28;20393;-72
2023/06/21 04:48:04;;;;;;;37.00;31.48;;;19.60;99.90;;;;;;5058103;28;20056;-72
2023/06/21 04:50:30;;;;;;;34.33;29.88;;;19.70;99.90;;;;;;5076388;28;20052;-72
2023/06/21 04:52:59;;;;;;;35.30;31.17;;;19.70;99.90;;;;;;5041588;28;20049;-72
2023/06/21 04:55:28;;;;;;;36.83;29.73;;;19.70;99.90;;;;;;5057757;28;20040;-72
2023/06/21 04:57:55;;;;;;;34.00;28.55;;;19.80;99.90;;;;;;5058006;28;20370;-72
2023/06/21 05:00:21;;;;;;;36.25;29.08;;;19.80;99.90;;;;;;5057883;28;20051;-73
2023/06/21 05:02:47;;;;;;;35.20;28.05;;;19.80;99.90;;;;;;5025312;28;20390;-72
2023/06/21 05:05:13;;;;;;;32.10;25.83;;;19.80;99.90;;;;;;5025111;28;20048;-72
2023/06/21 05:07:39;;;;;;;28.80;24.92;;;19.80;99.90;;;;;;5058495;28;20130;-72
2023/06/21 05:10:09;;;;;;;31.67;25.50;;;19.80;99.90;;;;;;5058171;28;20041;-72
2023/06/21 05:12:38;;;;;;;35.45;25.75;;;20.00;99.90;;;;;;5075448;28;20140;-71
2023/06/21 05:15:05;;;;;;;25.42;22.30;;;20.20;99.90;;;;;;5058225;28;20055;-72
2023/06/21 05:17:30;;;;;;;26.77;23.02;;;20.50;99.90;;;;;;5075531;28;20055;-71
2023/06/21 05:19:56;;;;;;;29.20;21.75;;;20.70;99.90;;;;;;5041566;28;20131;-73
2023/06/21 05:22:22;;;;;;;27.67;20.45;;;21.00;99.90;;;;;;5057234;28;20488;-72
2023/06/21 05:24:48;;;;;;;23.70;19.27;;;21.20;99.90;;;;;;5057566;28;20143;-72
2023/06/21 05:27:13;;;;;;;24.30;19.95;;;21.50;99.90;;;;;;5062994;28;20119;-72
2023/06/21 05:29:39;;;;;;;;;;;21.70;99.90;;;;;;5091482;28;20052;-72
2023/06/21 05:32:05;;;;;;;;;;;21.70;99.90;;;;;;5062321;28;19921;-71
2023/06/21 05:34:31;;;;;;;21.60;17.52;;;22.00;99.90;;;;;;5091970;28;19916;-72
2023/06/21 05:36:57;;;;;;;;;;;22.20;99.90;;;;;;5061633;28;20447;-72
2023/06/21 05:39:23;;;;;;;21.67;17.27;;;22.30;99.90;;;;;;5040373;28;20011;-72
2023/06/21 05:41:48;;;;;;;24.55;16.50;;;22.50;99.90;;;;;;5057319;28;20136;-73
2023/06/21 05:44:15;;;;;;;22.15;15.98;;;22.60;99.90;;;;;;5056964;28;20151;-72
2023/06/21 05:46:40;;;;;;;;;;;22.70;99.90;;;;;;5057764;28;20085;-71
2023/06/21 05:49:06;;;;;;;;;;;22.60;99.90;;;;;;5058072;28;19924;-73
2023/06/21 05:51:32;;;;;;;19.77;14.35;;;22.70;99.90;;;;;;5057664;28;19943;-72
2023/06/21 05:53:57;;;;;;;18.27;14.88;;;22.90;99.90;;;;;;5025132;28;20056;-72
2023/06/21 05:56:24;;;;;;;19.65;13.40;;;23.10;99.90;;;;;;5057469;28;20406;-71
2023/06/21 05:58:53;;;;;;;17.80;13.85;;;23.20;99.90;;;;;;5057691;28;20139;-73
2023/06/21 06:01:20;;;;;;;21.45;13.73;;;23.20;99.90;;;;;;5073817;28;20083;-73
2023/06/21 06:03:45;;;;;;;19.48;13.95;;;23.00;99.90;;;;;;5057844;28;20052;-72
2023/06/21 06:06:15;;;;;;;19.35;13.43;;;23.00;99.90;;;;;;5057317;28;20060;-72
2023/06/21 06:08:41;;;;;;;16.13;12.45;;;23.00;99.90;;;;;;5075146;28;20044;-72
2023/06/21 06:11:07;;;;;;;20.38;13.38;;;23.30;99.90;;;;;;5023522;28;20484;-71
2023/06/21 06:13:32;;;;;;;17.40;13.02;;;23.40;99.90;;;;;;5056945;28;20052;-72
2023/06/21 06:15:58;;;;;;;17.33;12.60;;;23.60;99.90;;;;;;5057341;28;20045;-71
2023/06/21 06:18:24;;;;;;;18.98;12.70;;;24.00;99.90;;;;;;5040282;28;20131;-72
2023/06/21 06:20:50;;;;;;;17.20;12.57;;;24.20;99.90;;;;;;5038827;28;20419;-71
2023/06/21 06:23:15;;;;;;;16.45;11.95;;;24.80;99.90;;;;;;5074595;28;20040;-73
2023/06/21 06:25:41;;;;;;;15.95;12.40;;;25.00;99.90;;;;;;5039921;28;20097;-72
2023/06/21 06:28:07;;;;;;;15.50;11.77;;;25.20;99.90;;;;;;5057084;28;20439;-72
2023/06/21 06:30:33;;;;;;;15.73;11.85;;;25.40;99.90;;;;;;5074841;28;20052;-72
2023/06/21 06:32:59;;;;;;;16.02;10.75;;;25.50;99.90;;;;;;5056747;28;20041;-71
2023/06/21 06:35:25;;;;;;;16.10;12.25;;;26.10;99.90;;;;;;5073979;28;20052;-72
2023/06/21 06:37:50;;;;;;;14.65;11.40;;;26.30;99.90;;;;;;5039063;28;20044;-72
2023/06/21 06:40:16;;;;;;;15.30;11.50;;;26.50;99.90;;;;;;5073955;28;20045;-71
2023/06/21 06:42:42;;;;;;;13.05;10.73;;;27.00;99.90;;;;;;5055230;28;20497;-69
2023/06/21 06:45:08;;;;;;;16.55;11.32;;;27.20;99.90;;;;;;5074111;28;20052;-72
2023/06/21 06:47:34;;;;;;;16.73;11.68;;;27.40;99.90;;;;;;5073472;28;20047;-70
2023/06/21 06:50:02;;;;;;;13.30;10.23;;;27.80;99.90;;;;;;5056315;28;20048;-70
2023/06/21 06:52:29;;;;;;;14.02;11.07;;;28.00;99.90;;;;;;5008390;28;20044;-71
2023/06/21 06:54:55;;;;;;;13.13;10.88;;;28.40;99.90;;;;;;5058254;28;20056;-74
2023/06/21 06:57:21;;;;;;;14.02;10.02;;;28.80;99.90;;;;;;5081727;28;20113;-73
2023/06/21 06:59:47;;;;;;;12.32;9.85;;;29.10;99.90;;;;;;5061683;28;20378;-70
2023/06/21 07:02:13;;;;;;;12.55;9.52;;;29.20;98.90;;;;;;5086693;28;20124;-72
2023/06/21 07:04:38;;;;;;;14.35;11.27;;;29.00;99.00;;;;;;5073462;28;20040;-71
2023/06/21 07:07:04;;;;;;;15.50;10.45;;;28.80;99.20;;;;;;5039370;28;20048;-72
2023/06/21 07:09:30;;;;;;;12.70;10.40;;;28.50;99.60;;;;;;5039025;28;20041;-71
2023/06/21 07:11:59;;;;;;;12.60;9.43;;;28.30;99.90;;;;;;5038814;28;20061;-71
2023/06/21 07:14:25;;;;;;;12.02;9.32;;;28.40;99.50;;;;;;5039146;28;20401;-72
2023/06/21 07:16:51;;;;;;;12.60;8.82;;;28.70;98.70;;;;;;5072268;28;20044;-71
2023/06/21 07:19:17;;;;;;;12.88;8.38;;;29.10;98.90;;;;;;5072026;28;20051;-71
2023/06/21 07:21:44;;;;;;;10.20;7.32;;;29.40;97.40;;;;;;5072344;28;20628;-73
2023/06/21 07:24:11;;;;;;;10.77;8.07;;;29.60;97.60;;;;;;5054950;28;20105;-72
2023/06/21 07:26:38;;;;;;;9.52;7.85;;;29.60;96.50;;;;;;5038123;28;20048;-72
2023/06/21 07:29:03;;;;;;;10.02;7.32;;;29.50;97.10;;;;;;5071935;28;20088;-71
2023/06/21 07:31:32;;;;;;;10.77;7.78;;;29.20;96.80;;;;;;5054581;28;20087;-72
2023/06/21 07:33:58;;;;;;;9.98;7.47;;;29.30;97.10;;;;;;5071377;28;20053;-72
2023/06/21 07:36:24;;;;;;;9.95;7.18;;;29.60;97.00;;;;;;5054686;28;20518;-73
2023/06/21 07:38:50;;;;;;;9.98;6.78;;;29.80;96.70;;;;;;5055345;28;20045;-71
2023/06/21 07:41:16;;;;;;;7.97;6.13;;;29.80;96.00;;;;;;5054993;28;20497;-69
2023/06/21 07:43:41;;;;;;;8.63;6.32;;;30.20;96.50;;;;;;5071260;28;20044;-73
2023/06/21 07:46:07;;;;;;;7.63;5.65;;;30.60;95.80;;;;;;5072603;28;20052;-71
2023/06/21 07:48:36;;;;;;;8.77;5.45;;;30.40;95.80;;;;;;5054499;28;20166;-71
2023/06/21 07:51:02;;;;;;;9.43;5.90;;;30.20;95.50;;;;;;5038767;28;20091;-72
2023/06/21 07:53:28;;;;;;;9.52;5.85;;;30.40;95.50;;;;;;5054777;28;20040;-73
2023/06/21 07:55:53;;;;;;;6.50;5.22;;;30.80;95.70;;;;;;5072406;28;20044;-73
2023/06/21 07:58:19;;;;;;;6.78;5.43;;;31.10;94.30;;;;;;5072567;28;20055;-71
2023/06/21 08:00:45;;;;;;;9.90;5.28;;;30.90;94.10;;;;;;5054429;28;20385;-72
2023/06/21 08:03:10;;;;;;;8.27;5.65;;;31.30;94.40;;;;;;5054294;28;20036;-72
2023/06/21 08:05:36;;;;;;;14.30;6.60;;;31.60;94.10;;;;;;5038160;28;20060;-71
2023/06/21 08:08:02;;;;;;;8.65;6.70;;;31.70;94.10;;;;;;5054858;28;20048;-73
2023/06/21 08:10:30;;;;;;;7.80;5.43;;;31.60;94.00;;;;;;5038424;28;20465;-72
2023/06/21 08:12:56;;;;;;;7.07;5.72;;;31.40;94.20;;;;;;5071274;28;20136;-71
2023/06/21 08:15:22;;;;;;;8.32;6.30;;;31.10;93.70;;;;;;5054931;28;20094;-71
2023/06/21 08:17:49;;;;;;;8.32;5.72;;;30.90;93.80;;;;;;5072493;28;20055;-72
2023/06/21 08:20:15;;;;;;;9.65;5.63;;;31.00;94.60;;;;;;5055075;28;20048;-71
2023/06/21 08:22:40;;;;;;;6.40;5.20;;;31.10;93.40;;;;;;5054357;28;20508;-71
2023/06/21 08:25:06;;;;;;;7.65;5.35;;;31.40;93.20;;;;;;5072798;28;20049;-70
2023/06/21 08:27:32;;;;;;;7.68;5.63;;;31.50;93.60;;;;;;5073019;28;20045;-73
2023/06/21 08:29:58;;;;;;;10.43;5.18;;;31.70;93.30;;;;;;5086683;28;20112;-73
2023/06/21 08:32:24;;;;;;;9.30;4.93;;;32.00;93.40;;;;;;5090325;28;20040;-72
2023/06/21 08:34:52;;;;;;;8.32;5.45;;;32.30;93.10;;;;;;5024652;28;20056;-72
2023/06/21 08:37:22;;;;;;;7.43;4.75;;;32.60;92.40;;;;;;5055105;28;20416;-72
2023/06/21 08:39:49;;;;;;;8.63;5.25;;;32.60;92.50;;;;;;5053962;28;20127;-72
2023/06/21 08:42:15;;;;;;;8.38;5.57;;;32.70;91.80;;;;;;5072519;28;20503;-71
2023/06/21 08:44:40;;;;;;;7.32;5.10;;;32.70;91.50;;;;;;5053904;28;20044;-71
2023/06/21 08:47:07;;;;;;;8.13;5.07;;;32.60;91.90;;;;;;5054790;28;20218;-71
2023/06/21 08:49:37;;;;;;;7.10;4.95;;;32.60;92.00;;;;;;5071046;28;20447;-74
2023/06/21 08:52:07;;;;;;;6.85;4.97;;;32.70;91.50;;;;;;5054627;28;20101;-71
2023/06/21 08:54:38;;;;;;;8.88;5.72;;;32.60;91.50;;;;;;5054599;28;20091;-72
2023/06/21 08:57:09;;;;;;;8.13;5.32;;;32.90;91.70;;;;;;5054225;28;20048;-70
2023/06/21 08:59:41;;;;;;;8.82;5.30;;;33.20;91.30;;;;;;5067607;28;20086;-75
2023/06/21 09:02:19;;;;;;;10.85;5.40;;;33.40;91.20;;;;;;5068367;28;20051;-71
2023/06/21 09:04:49;;;;;;;8.85;5.65;;;33.50;90.40;;;;;;5070100;28;20053;-71
2023/06/21 09:07:16;;;;;;;5.78;4.72;;;33.50;90.60;;;;;;5074584;28;20047;-75
2023/06/21 09:09:44;;;;;;;6.47;4.70;;;33.50;90.60;;;;;;5074026;28;20497;-72
2023/06/21 09:12:12;;;;;;;7.75;4.45;;;33.50;90.60;;;;;;5052357;28;20053;-71
2023/06/21 09:14:39;;;;;;;7.05;4.22;;;33.60;90.20;;;;;;5053263;28;20089;-74
2023/06/21 09:17:07;;;;;;;5.70;3.83;;;33.50;90.30;;;;;;5037784;28;20089;-71
2023/06/21 09:19:35;;;;;;;6.65;4.50;;;33.60;90.60;;;;;;5021442;28;20049;-71
2023/06/21 09:22:01;;;;;;;6.93;4.55;;;33.80;90.70;;;;;;5037292;28;20045;-71
2023/06/21 09:24:27;;;;;;;8.65;4.10;;;33.80;90.40;;;;;;5054099;28;20132;-71
2023/06/21 09:26:53;;;;;;;8.18;4.75;;;34.10;89.80;;;;;;5037352;28;20110;-71
2023/06/21 09:29:19;;;;;;;7.85;4.00;;;34.00;89.10;;;;;;5055247;28;20053;-71
2023/06/21 09:31:44;;;;;;;6.95;4.57;;;33.90;88.90;;;;;;5053396;28;20064;-70
2023/06/21 09:34:10;;;;;;;6.30;3.85;;;33.60;88.80;;;;;;5054003;28;20572;-71
2023/06/21 09:36:36;;;;;;;6.85;4.03;;;33.60;89.60;;;;;;5053752;28;20044;-71
2023/06/21 09:39:09;;;;;;;5.80;4.13;;;33.50;89.40;;;;;;5052574;28;20047;-72
2023/06/21 09:41:36;;;;;;;6.43;3.85;;;33.30;89.70;;;;;;5053947;28;20132;-74
2023/06/21 09:44:02;;;;;;;6.63;4.50;;;33.10;89.90;;;;;;5053650;28;20083;-72
2023/06/21 09:46:28;;;;;;;5.30;3.83;;;33.00;90.10;;;;;;5053813;28;20048;-73
2023/06/21 09:48:54;;;;;;;5.55;3.70;;;33.00;88.70;;;;;;5020747;28;20101;-73
2023/06/21 09:51:23;;;;;;;6.32;4.10;;;32.90;89.20;;;;;;5055433;28;20478;-72
2023/06/21 09:53:52;;;;;;;5.97;3.67;;;33.00;89.60;;;;;;5037476;28;20508;-72
2023/06/21 09:56:19;;;;;;;5.80;4.28;;;32.90;89.20;;;;;;5038367;28;20498;-72
2023/06/21 09:58:48;;;;;;;7.50;4.55;;;32.80;89.50;;;;;;5055030;28;20053;-73
2023/06/21 10:01:15;;;;;;;8.02;3.90;;;32.90;90.20;;;;;;5073786;28;20055;-71
2023/06/21 10:03:44;;;;;;;5.25;3.63;;;32.70;90.40;;;;;;5073548;28;20100;-77
2023/06/21 10:06:16;;;;;;;5.97;4.00;;;32.70;90.00;;;;;;5061546;28;20057;-71
2023/06/21 10:08:43;;;;;;;6.40;3.70;;;32.70;90.00;;;;;;5038908;28;20433;-78
2023/06/21 10:11:09;;;;;;;6.97;4.50;;;32.80;90.40;;;;;;5054827;28;20285;-72
2023/06/21 10:13:38;;;;;;;6.38;3.78;;;32.60;90.00;;;;;;5074054;28;20079;-71
2023/06/21 10:16:05;;;;;;;7.82;4.50;;;32.50;90.00;;;;;;5056515;28;20478;-73
2023/06/21 10:18:32;;;;;;;5.82;4.15;;;32.40;88.80;;;;;;5057146;28;20504;-74
2023/06/21 10:21:01;;;;;;;6.88;4.15;;;32.10;89.30;;;;;;5053929;28;20044;-73
2023/06/21 10:23:34;;;;;;;5.75;4.07;;;31.90;90.10;;;;;;5074301;28;20095;-73
2023/06/21 10:26:11;;;;;;;7.40;3.80;;;31.70;89.30;;;;;;5055860;28;20442;-72
2023/06/21 10:28:39;;;;;;;9.00;4.55;;;31.70;90.00;;;;;;5040583;28;20141;-72
2023/06/21 10:31:08;;;;;;;6.85;4.07;;;31.80;90.20;;;;;;5072237;28;20047;-72
2023/06/21 10:33:36;;;;;;;7.70;3.28;;;31.70;89.30;;;;;;5039760;28;20040;-72
2023/06/21 10:36:04;;;;;;;8.40;3.88;;;31.80;90.40;;;;;;5055758;28;20052;-75
2023/06/21 10:38:47;;;;;;;6.20;3.20;;;31.90;89.10;;;;;;5074250;28;20056;-71
2023/06/21 10:41:17;;;;;;;4.82;3.22;;;31.70;89.50;;;;;;5073992;28;20074;-73
2023/06/21 10:43:44;;;;;;;5.03;3.53;;;31.50;89.40;;;;;;5056255;28;20398;-70
2023/06/21 10:46:11;;;;;;;5.90;3.58;;;31.20;89.20;;;;;;5039138;28;20052;-69
2023/06/21 10:48:38;;;;;;;5.18;3.88;;;31.20;89.90;;;;;;5056130;28;20493;-70
2023/06/21 10:51:04;;;;;;;5.53;3.30;;;31.20;90.00;;;;;;5071919;28;20421;-70
2023/06/21 10:53:32;;;;;;;5.63;3.28;;;31.20;90.30;;;;;;5073739;28;20084;-69
2023/06/21 10:56:02;;;;;;;6.40;3.28;;;31.20;90.30;;;;;;5055315;28;20057;-70
2023/06/21 10:58:30;;;;;;;5.85;3.63;;;31.30;90.50;;;;;;5073545;28;20429;-69
2023/06/21 11:00:57;;;;;;;4.75;3.45;;;31.30;89.60;;;;;;5054997;28;20051;-70
2023/06/21 11:03:25;;;;;;;6.38;3.63;;;31.10;89.40;;;;;;5055966;28;20087;-68
2023/06/21 11:06:27;;;;;;;5.15;3.90;;;31.10;90.00;;;;;;5055347;28;20494;-71
2023/06/21 11:08:53;;;;;;;4.75;3.30;;;31.00;90.00;;;;;;5055324;28;20440;-70
2023/06/21 11:11:49;;;;;;;7.43;3.60;;;30.70;90.30;;;;;;5072984;28;20040;-70
2023/06/21 11:14:29;;;;;;;5.63;3.33;;;30.50;90.30;;;;;;5064111;28;20052;-70
2023/06/21 11:17:09;;;;;;;6.40;4.07;;;30.30;89.90;;;;;;5072942;28;20456;-69
2023/06/21 11:19:37;;;;;;;5.78;3.20;;;30.20;90.40;;;;;;5055612;28;20135;-69
2023/06/21 11:22:17;;;;;;;5.15;3.05;;;30.10;90.50;;;;;;5072745;28;20045;-66
2023/06/21 11:25:00;;;;;;;5.47;3.42;;;30.10;90.40;;;;;;5055584;28;20051;-69
2023/06/21 11:27:29;;;;;;;5.22;3.30;;;30.10;90.40;;;;;;5071468;28;20045;-69
2023/06/21 11:30:09;;;;;;;4.50;3.08;;;30.10;90.60;;;;;;5038850;28;20446;-73
2023/06/21 11:32:37;;;;;;;6.97;3.03;;;30.30;91.20;;;;;;5077866;28;20052;-75
2023/06/21 11:35:08;;;;;;;4.82;2.90;;;30.40;91.00;;;;;;5069629;28;20068;-70
2023/06/21 11:37:42;;;;;;;4.32;2.78;;;30.50;90.90;;;;;;5064824;28;20052;-67
2023/06/21 11:40:14;;;;;;;5.97;3.08;;;30.50;90.20;;;;;;5073887;28;20067;-67
2023/06/21 11:42:45;;;;;;;6.40;3.10;;;30.60;90.60;;;;;;5071834;28;20432;-68
2023/06/21 11:45:32;;;;;;;5.88;3.00;;;30.60;90.40;;;;;;5072053;28;20067;-68
2023/06/21 11:48:10;;;;;;;4.53;2.83;;;30.70;90.30;;;;;;5072247;28;20048;-68
2023/06/21 11:50:47;;;;;;;7.88;3.63;;;30.80;90.20;;;;;;5055009;28;20496;-68
2023/06/21 11:53:20;;;;;;;4.82;3.47;;;30.70;88.90;;;;;;5038221;28;20132;-69
2023/06/21 11:56:00;;;;;;;6.85;3.42;;;30.50;90.10;;;;;;5054967;28;20074;-68
2023/06/21 11:58:27;;;;;;;4.63;3.40;;;30.50;90.40;;;;;;5055361;28;20398;-69
2023/06/21 12:00:54;;;;;;;5.30;3.30;;;30.40;90.60;;;;;;5072751;28;20070;-70
2023/06/21 12:03:21;;;;;;;4.85;3.10;;;30.50;90.90;;;;;;5072305;28;20045;-69
2023/06/21 12:05:59;;;;;;;5.05;3.20;;;30.50;90.60;;;;;;5071671;28;20091;-70
2023/06/21 12:08:30;;;;;;;5.72;3.45;;;30.70;90.70;;;;;;5073288;28;20044;-68
2023/06/21 12:10:58;;;;;;;4.45;3.20;;;30.70;90.40;;;;;;5073081;28;20367;-70
2023/06/21 12:13:25;;;;;;;6.03;3.55;;;30.70;90.80;;;;;;5054535;28;20088;-69
2023/06/21 12:15:56;;;;;;;7.35;3.97;;;30.60;90.70;;;;;;5072573;28;20056;-69
2023/06/21 12:18:25;;;;;;;6.40;3.88;;;30.50;90.70;;;;;;5054726;28;20044;-68
2023/06/21 12:20:54;;;;;;;21.17;4.93;;;30.50;90.40;;;;;;5038447;28;20045;-69
2023/06/21 12:23:21;;;;;;;8.73;4.15;;;30.40;90.80;;;;;;5072045;28;20032;-68
2023/06/21 12:25:49;;;;;;;7.10;4.82;;;30.20;91.40;;;;;;5071233;28;20049;-69
2023/06/21 12:28:16;;;;;;;7.03;4.70;;;30.20;91.20;;;;;;5070814;28;20157;-68
2023/06/21 12:30:57;;;;;;;10.38;5.80;;;30.20;91.10;;;;;;5054958;28;20191;-67
2023/06/21 12:33:28;;;;;;;8.45;5.68;;;30.00;91.20;;;;;;5054267;28;20045;-68
2023/06/21 12:36:12;;;;;;;7.45;4.95;;;29.80;91.40;;;;;;5054796;28;20051;-69
2023/06/21 12:38:38;;;;;;;9.05;5.50;;;29.70;91.10;;;;;;5038691;28;20091;-67
2023/06/21 12:41:03;;;;;;;9.07;5.47;;;29.70;90.90;;;;;;5056962;28;20083;-70